Time;durP1;ratioP1;P1;durP2;ratioP2;P2;SDS_P1;SDS_P2;PMS_P1;PMS_P2;Temp;Humidity;BMP_temperature;BMP_pressure;BME280_temperature;BME280_humidity;BME280_pressure;Samples;Min_cycle;Max_cycle;Signal;HPM_P1;HPM_P2
2024/04/09 00:00:08;;;;;;;7.77;2.77;;;;;14.00;99801.00;;;;11291745;25;20253;-82
2024/04/09 00:05:09;;;;;;;5.67;1.90;;;;;14.00;99836.00;;;;11268930;26;20716;-81
2024/04/09 00:10:13;;;;;;;6.60;1.90;;;;;13.90;99863.00;;;;11262673;26;21066;-82
2024/04/09 00:15:14;;;;;;;8.10;2.23;;;;;14.00;99874.00;;;;11244193;26;20296;-83
2024/04/09 00:20:18;;;;;;;9.80;3.63;;;;;14.00;99882.00;;;;11239391;26;20250;-82
2024/04/09 00:25:20;;;;;;;6.60;2.40;;;;;14.00;99885.00;;;;11236054;26;20254;-82
2024/04/09 00:30:22;;;;;;;5.90;2.20;;;;;14.00;99903.00;;;;11192792;26;20361;-82
2024/04/09 00:35:24;;;;;;;9.17;2.47;;;;;13.90;99888.00;;;;11245848;26;20250;-83
2024/04/09 00:40:26;;;;;;;7.37;2.30;;;;;13.90;99856.00;;;;11258420;26;20293;-83
2024/04/09 00:45:28;;;;;;;6.47;2.30;;;;;13.90;99850.00;;;;11260833;25;20261;-78
2024/04/09 00:50:32;;;;;;;5.67;2.07;;;;;13.90;99793.00;;;;11251247;26;20259;-77
2024/04/09 00:55:34;;;;;;;8.70;2.50;;;;;13.80;99838.00;;;;11255254;26;20327;-76
2024/04/09 01:00:35;;;;;;;7.90;2.57;;;;;13.90;99861.00;;;;11235510;26;20255;-81
2024/04/09 01:05:38;;;;;;;6.97;2.43;;;;;13.90;99888.00;;;;11219043;26;20254;-82
2024/04/09 01:10:39;;;;;;;6.60;2.60;;;;;13.70;99885.00;;;;11185273;26;20341;-81
2024/04/09 01:15:41;;;;;;;6.27;2.77;;;;;13.60;99898.00;;;;11262615;25;20316;-80
2024/04/09 01:20:43;;;;;;;4.37;2.33;;;;;13.40;99935.00;;;;11225059;26;20925;-80
2024/04/09 01:25:44;;;;;;;5.03;2.40;;;;;13.40;99974.00;;;;11257148;26;20251;-80
2024/04/09 01:30:46;;;;;;;7.57;2.60;;;;;13.30;99992.00;;;;11251394;26;20337;-81
2024/04/09 01:35:50;;;;;;;5.50;2.00;;;;;13.20;99976.00;;;;11225224;26;20258;-81
2024/04/09 01:40:51;;;;;;;4.77;1.90;;;;;13.10;99968.00;;;;11220493;26;20289;-80
2024/04/09 01:45:53;;;;;;;8.73;2.27;;;;;12.90;99968.00;;;;11195217;26;20255;-80
2024/04/09 01:50:55;;;;;;;2.27;1.57;;;;;12.80;99990.00;;;;11253872;26;20355;-81
2024/04/09 01:56:01;;;;;;;5.10;2.37;;;;;12.80;99971.00;;;;11191099;26;20258;-81
2024/04/09 02:01:06;;;;;;;4.43;2.30;;;;;12.80;99968.00;;;;11231570;26;20255;-81
2024/04/09 02:06:08;;;;;;;6.30;2.87;;;;;12.80;99976.00;;;;11241477;26;21132;-81
2024/04/09 02:11:12;;;;;;;8.80;3.83;;;;;12.80;99987.00;;;;11232202;26;20290;-81
2024/04/09 02:16:16;;;;;;;9.13;5.67;;;;;12.80;99971.00;;;;11253975;26;20250;-80
2024/04/09 02:21:20;;;;;;;7.63;6.60;;;;;12.80;99961.00;;;;11256989;25;20253;-81
2024/04/09 02:26:23;;;;;;;14.13;6.37;;;;;12.80;99964.00;;;;11222196;26;20272;-79
2024/04/09 02:31:25;;;;;;;8.97;6.13;;;;;12.90;99943.00;;;;11210127;26;20259;-81
2024/04/09 02:36:26;;;;;;;11.37;5.27;;;;;12.90;99965.00;;;;11244318;25;20258;-79
2024/04/09 02:41:28;;;;;;;8.17;4.53;;;;;12.90;99991.00;;;;11255499;25;20357;-80
2024/04/09 02:46:29;;;;;;;6.37;3.40;;;;;12.90;100003.00;;;;11255237;25;20277;-79
2024/04/09 02:51:31;;;;;;;6.77;3.50;;;;;12.80;100008.00;;;;11235797;25;20283;-79
2024/04/09 02:56:34;;;;;;;3.33;2.60;;;;;12.80;100007.00;;;;11252899;26;20266;-79
2024/04/09 03:01:35;;;;;;;2.40;2.20;;;;;12.70;100017.00;;;;11260237;25;20258;-78
2024/04/09 03:06:37;;;;;;;7.90;2.20;;;;;12.60;100011.00;;;;11214796;26;20285;-79
2024/04/09 03:11:39;;;;;;;3.60;2.20;;;;;12.50;100001.00;;;;11220944;26;20251;-79
2024/04/09 03:16:40;;;;;;;4.40;1.67;;;;;12.40;100017.00;;;;11237127;26;20255;-78
2024/04/09 03:21:42;;;;;;;7.17;1.90;;;;;12.40;100029.00;;;;11234391;26;20280;-80
2024/04/09 03:26:44;;;;;;;5.87;1.87;;;;;12.40;100049.00;;;;11268297;25;20254;-80
2024/04/09 03:31:45;;;;;;;3.53;1.60;;;;;12.40;100069.00;;;;11252388;26;20255;-79
2024/04/09 03:36:49;;;;;;;4.47;1.50;;;;;12.30;100065.00;;;;11262569;25;20259;-79
2024/04/09 03:41:51;;;;;;;5.10;2.00;;;;;12.10;100101.00;;;;11266336;26;20255;-79
2024/04/09 03:46:52;;;;;;;7.70;2.67;;;;;11.90;100121.00;;;;11256300;25;20342;-81
2024/04/09 03:51:54;;;;;;;4.87;1.93;;;;;11.70;100162.00;;;;11230019;25;20816;-80
2024/04/09 03:56:56;;;;;;;4.97;1.20;;;;;11.40;100134.00;;;;11302529;25;20250;-79
2024/04/09 04:01:58;;;;;;;4.40;1.40;;;;;11.20;100142.00;;;;11268205;26;20306;-79
2024/04/09 04:07:00;;;;;;;5.90;1.20;;;;;11.10;100154.00;;;;11228816;26;20265;-80
2024/04/09 04:12:02;;;;;;;5.00;1.17;;;;;11.00;100170.00;;;;11269753;25;20741;-79
2024/04/09 04:17:05;;;;;;;6.80;1.30;;;;;11.00;100170.00;;;;11257563;26;20343;-79
2024/04/09 04:22:07;;;;;;;8.93;1.37;;;;;10.90;100179.00;;;;11203418;26;20306;-79
2024/04/09 04:27:09;;;;;;;3.10;1.00;;;;;10.90;100184.00;;;;11231565;26;20258;-79
2024/04/09 04:32:10;;;;;;;8.27;1.83;;;;;10.80;100196.00;;;;11196727;26;20260;-79
2024/04/09 04:37:12;;;;;;;2.97;1.37;;;;;10.70;100187.00;;;;11262258;25;20648;-78
2024/04/09 04:42:13;;;;;;;6.20;1.40;;;;;10.60;100193.00;;;;11248926;26;21074;-79
2024/04/09 04:47:15;;;;;;;7.13;1.33;;;;;10.60;100216.00;;;;11126185;26;20881;-79
2024/04/09 04:52:16;;;;;;;5.77;1.60;;;;;10.60;100205.00;;;;11244478;26;20330;-79
2024/04/09 04:57:22;;;;;;;6.47;1.57;;;;;10.60;100198.00;;;;11256744;26;21097;-79
2024/04/09 05:02:24;;;;;;;4.70;0.83;;;;;10.60;100208.00;;;;11231352;26;20358;-79
2024/04/09 05:07:25;;;;;;;9.07;1.50;;;;;10.60;100202.00;;;;11260541;26;20250;-79
2024/04/09 05:12:27;;;;;;;3.80;1.20;;;;;10.60;100219.00;;;;11223785;26;20642;-79
2024/04/09 05:17:28;;;;;;;6.23;1.20;;;;;10.60;100214.00;;;;11270808;25;20320;-78
2024/04/09 05:22:30;;;;;;;5.87;1.27;;;;;10.60;100219.00;;;;11213874;26;20282;-78
2024/04/09 05:27:32;;;;;;;7.20;1.43;;;;;10.60;100232.00;;;;11213707;26;20724;-79
2024/04/09 05:32:38;;;;;;;5.67;1.30;;;;;10.60;100210.00;;;;11254457;26;20277;-78
2024/04/09 05:37:40;;;;;;;5.13;1.10;;;;;10.60;100202.00;;;;11240023;26;20312;-79
2024/04/09 05:42:43;;;;;;;6.47;1.50;;;;;10.60;100220.00;;;;11247625;25;20250;-84
2024/04/09 05:47:45;;;;;;;3.33;1.00;;;;;10.60;100218.00;;;;11235228;26;20947;-84
2024/04/09 05:52:47;;;;;;;4.73;1.33;;;;;10.60;100223.00;;;;11232411;25;20249;-83
2024/04/09 05:57:48;;;;;;;5.83;1.23;;;;;10.70;100231.00;;;;11260694;26;20251;-82
2024/04/09 06:02:50;;;;;;;7.60;1.43;;;;;10.90;100228.00;;;;11251842;25;20707;-84
2024/04/09 06:07:52;;;;;;;10.03;1.40;;;;;10.90;100254.00;;;;11238830;26;21024;-85
2024/04/09 06:12:53;;;;;;;7.67;1.80;;;;;10.80;100226.00;;;;11221037;26;20263;-84
2024/04/09 06:17:55;;;;;;;2.83;0.93;;;;;10.90;100249.00;;;;11212957;25;21116;-84
2024/04/09 06:22:56;;;;;;;5.27;1.33;;;;;10.90;100257.00;;;;11186967;26;20368;-83
2024/04/09 06:27:58;;;;;;;5.83;1.57;;;;;10.90;100294.00;;;;11200886;26;20315;-84
2024/04/09 06:32:59;;;;;;;10.17;1.67;;;;;11.00;100320.00;;;;11186667;26;20327;-85
2024/04/09 06:38:02;;;;;;;6.27;1.33;;;;;11.30;100339.00;;;;11231306;26;20251;-83
2024/04/09 06:43:03;;;;;;;6.27;1.40;;;;;11.30;100351.00;;;;11206219;26;20318;-83
2024/04/09 06:48:05;;;;;;;6.37;1.37;;;;;11.20;100309.00;;;;11248973;26;20372;-84
2024/04/09 06:53:07;;;;;;;4.60;1.20;;;;;11.20;100304.00;;;;11236031;25;20292;-82
2024/04/09 06:58:10;;;;;;;6.13;1.20;;;;;11.10;100304.00;;;;11195989;25;20351;-82
2024/04/09 07:03:11;;;;;;;8.53;2.13;;;;;11.20;100304.00;;;;11206857;26;20292;-81
2024/04/09 07:08:13;;;;;;;6.10;1.30;;;;;11.20;100299.00;;;;11233882;26;21085;-82
2024/04/09 07:13:14;;;;;;;7.33;1.40;;;;;11.00;100296.00;;;;11234573;26;20292;-84
2024/04/09 07:18:16;;;;;;;8.10;1.40;;;;;10.90;100306.00;;;;11193553;25;20301;-81
2024/04/09 07:23:17;;;;;;;3.80;1.30;;;;;11.10;100310.00;;;;11185037;26;20270;-82
2024/04/09 07:28:19;;;;;;;6.83;1.60;;;;;11.10;100322.00;;;;11279877;25;20310;-82
2024/04/09 07:33:20;;;;;;;11.03;1.57;;;;;11.20;100334.00;;;;11243008;25;20274;-81
2024/04/09 07:38:22;;;;;;;16.53;2.33;;;;;11.30;100337.00;;;;11201670;25;20354;-81
2024/04/09 07:43:24;;;;;;;4.17;1.10;;;;;11.90;100321.00;;;;11225111;26;20289;-80
2024/04/09 07:48:26;;;;;;;6.17;1.70;;;;;12.10;100335.00;;;;11284341;25;20441;-81
2024/04/09 07:53:27;;;;;;;10.27;1.43;;;;;12.70;100326.00;;;;11249912;25;20278;-81
2024/04/09 07:58:29;;;;;;;5.10;1.10;;;;;12.80;100350.00;;;;11216876;26;20251;-81
2024/04/09 08:03:31;;;;;;;5.63;1.17;;;;;13.20;100349.00;;;;11250010;25;20270;-78
2024/04/09 08:08:33;;;;;;;3.80;1.03;;;;;13.30;100357.00;;;;11241510;26;20246;-78
2024/04/09 08:13:41;;;;;;;5.23;1.03;;;;;13.40;100397.00;;;;11206004;25;20252;-77
2024/04/09 08:18:43;;;;;;;3.07;0.87;;;;;14.20;100393.00;;;;11204194;26;20250;-77
2024/04/09 08:23:45;;;;;;;2.70;0.83;;;;;14.50;100408.00;;;;11249741;25;20325;-77
2024/04/09 08:28:47;;;;;;;2.40;0.90;;;;;13.90;100409.00;;;;11258704;26;20299;-76
2024/04/09 08:33:50;;;;;;;3.60;1.00;;;;;13.70;100428.00;;;;11242156;26;20292;-76
2024/04/09 08:38:52;;;;;;;5.57;1.17;;;;;13.70;100439.00;;;;11218997;26;20327;-77
2024/04/09 08:43:55;;;;;;;6.20;1.00;;;;;13.10;100448.00;;;;11268545;26;20291;-77
2024/04/09 08:48:57;;;;;;;3.73;1.10;;;;;12.70;100438.00;;;;11217940;26;20284;-77
2024/04/09 08:53:59;;;;;;;2.17;1.07;;;;;12.90;100452.00;;;;11143655;26;20320;-77
2024/04/09 08:59:04;;;;;;;3.57;1.13;;;;;13.20;100458.00;;;;11165822;26;20290;-77
2024/04/09 09:04:05;;;;;;;4.27;1.00;;;;;13.00;100466.00;;;;11098103;26;20249;-77
2024/04/09 09:09:09;;;;;;;2.97;1.37;;;;;13.60;100448.00;;;;11163947;26;20295;-76
2024/04/09 09:14:11;;;;;;;6.30;1.17;;;;;13.90;100461.00;;;;11242827;26;20277;-82
2024/04/09 09:19:16;;;;;;;4.53;1.00;;;;;13.40;100438.00;;;;11212932;26;20280;-83
2024/04/09 09:24:17;;;;;;;3.03;1.10;;;;;13.80;100437.00;;;;11255249;25;20366;-83
2024/04/09 09:29:19;;;;;;;4.13;0.87;;;;;14.50;100415.00;;;;11234492;26;20267;-83
2024/04/09 09:34:43;;;;;;;4.37;1.00;;;;;14.30;100422.00;;;;11210062;25;20383;-82
2024/04/09 09:39:46;;;;;;;6.67;1.13;;;;;15.50;100437.00;;;;11205926;26;20281;-83
2024/04/09 09:44:50;;;;;;;2.92;1.10;;;;;15.60;100427.00;;;;11257578;25;20247;-83
2024/04/09 09:49:53;;;;;;;2.75;1.08;;;;;15.70;100427.00;;;;11244046;26;20295;-82
2024/04/09 09:55:08;;;;;;;2.27;0.77;;;;;16.10;100445.00;;;;11259012;25;20401;-82
2024/04/09 10:00:15;;;;;;;4.72;1.25;;;;;16.30;100446.00;;;;11234653;26;20255;-83
2024/04/09 10:05:18;;;;;;;3.70;1.25;;;;;16.50;100471.00;;;;11223408;26;20353;-82
2024/04/09 10:10:41;;;;;;;6.63;1.02;;;;;15.90;100466.00;;;;11257430;26;20720;-85
2024/04/09 10:15:45;;;;;;;3.28;1.17;;;;;15.80;100479.00;;;;11127410;26;20265;-83
2024/04/09 10:20:53;;;;;;;5.20;1.00;;;;;15.50;100457.00;;;;11210044;25;20247;-79
2024/04/09 10:25:57;;;;;;;2.50;0.88;;;;;15.40;100472.00;;;;11175630;26;20791;-77
2024/04/09 10:31:01;;;;;;;6.43;1.20;;;;;15.90;100481.00;;;;11157550;26;21111;-78
2024/04/09 10:36:07;;;;;;;7.50;1.08;;;;;16.00;100495.00;;;;11191359;26;20315;-78
2024/04/09 10:41:09;;;;;;;3.55;0.90;;;;;15.40;100507.00;;;;11142349;26;20573;-78
2024/04/09 10:46:11;;;;;;;3.30;1.02;;;;;15.80;100495.00;;;;11124291;26;20300;-77
2024/04/09 10:51:17;;;;;;;6.78;1.20;;;;;16.50;100500.00;;;;11174229;26;20290;-77
2024/04/09 10:56:23;;;;;;;6.28;1.00;;;;;16.30;100500.00;;;;11199903;25;20318;-77
2024/04/09 11:01:24;;;;;;;3.05;0.93;;;;;15.10;100517.00;;;;11174820;26;20259;-77
2024/04/09 11:06:26;;;;;;;6.53;1.20;;;;;14.80;100524.00;;;;11196933;26;20720;-77
2024/04/09 11:11:28;;;;;;;3.33;1.17;;;;;14.40;100535.00;;;;11202722;25;20255;-78
2024/04/09 11:16:30;;;;;;;8.07;1.60;;;;;15.00;100535.00;;;;11154001;26;20290;-79
2024/04/09 11:21:34;;;;;;;3.03;0.90;;;;;15.10;100539.00;;;;11186991;26;20251;-79
2024/04/09 11:26:37;;;;;;;4.53;0.87;;;;;15.30;100542.00;;;;11134124;26;20270;-79
2024/04/09 11:31:39;;;;;;;3.47;0.80;;;;;15.00;100549.00;;;;11179993;26;20341;-79
2024/04/09 11:36:45;;;;;;;2.97;0.88;;;;;15.40;100556.00;;;;11188373;26;20267;-79
2024/04/09 11:41:48;;;;;;;5.38;1.00;;;;;16.00;100548.00;;;;11131276;26;20694;-79
2024/04/09 11:46:50;;;;;;;3.80;0.90;;;;;15.80;100547.00;;;;11062668;26;20276;-79
2024/04/09 11:51:52;;;;;;;2.15;1.00;;;;;15.90;100541.00;;;;11146146;26;20688;-80
2024/04/09 11:56:54;;;;;;;4.10;1.00;;;;;16.00;100560.00;;;;11172169;26;20255;-80
2024/04/09 12:01:55;;;;;;;2.95;0.85;;;;;16.60;100568.00;;;;11073816;26;20396;-80
2024/04/09 12:06:57;;;;;;;3.10;0.60;;;;;16.00;100564.00;;;;11161900;26;20251;-80
2024/04/09 12:11:58;;;;;;;2.72;0.80;;;;;15.20;100572.00;;;;11185132;26;20267;-80
2024/04/09 12:17:00;;;;;;;3.10;0.73;;;;;15.70;100570.00;;;;11111323;26;20644;-79
2024/04/09 12:22:03;;;;;;;2.30;1.13;;;;;17.30;100593.00;;;;11167060;26;20253;-79
2024/04/09 12:27:05;;;;;;;4.53;1.10;;;;;18.00;100582.00;;;;11173397;26;20352;-80
2024/04/09 12:32:06;;;;;;;1.90;0.95;;;;;17.80;100592.00;;;;11097785;26;20722;-79
2024/04/09 12:37:08;;;;;;;3.47;1.38;;;;;17.60;100607.00;;;;11108131;26;20256;-80
2024/04/09 12:42:10;;;;;;;2.65;0.93;;;;;17.10;100602.00;;;;11095867;26;20299;-85
2024/04/09 12:47:11;;;;;;;3.90;0.85;;;;;16.80;100618.00;;;;11124124;26;20373;-86
2024/04/09 12:52:13;;;;;;;2.40;1.20;;;;;17.70;100608.00;;;;11086650;26;20294;-85
2024/04/09 12:57:15;;;;;;;2.38;0.70;;;;;17.70;100625.00;;;;11135150;26;20311;-84
2024/04/09 13:02:18;;;;;;;2.38;1.15;;;;;17.70;100626.00;;;;11145044;26;20271;-84
2024/04/09 13:07:21;;;;;;;4.97;1.02;;;;;17.40;100635.00;;;;11180677;26;20302;-86
2024/04/09 13:12:24;;;;;;;4.03;0.90;;;;;17.20;100637.00;;;;11156858;26;20341;-84
2024/04/09 13:17:25;;;;;;;2.85;1.38;;;;;17.90;100652.00;;;;11159145;26;20690;-87
2024/04/09 13:22:27;;;;;;;2.72;0.68;;;;;17.50;100666.00;;;;11157128;26;20632;-91
2024/04/09 13:27:29;;;;;;;2.90;0.60;;;;;16.60;100635.00;;;;11120933;26;20261;-87
2024/04/09 13:32:33;;;;;;;1.77;0.50;;;;;16.40;100633.00;;;;11183946;26;20278;-87
2024/04/09 13:37:35;;;;;;;2.92;0.75;;;;;15.10;100648.00;;;;11140536;26;20264;-89
2024/04/09 13:42:46;;;;;;;3.55;0.70;;;;;16.00;100647.00;;;;11170455;26;20276;-88
2024/04/09 13:47:48;;;;;;;2.58;0.63;;;;;15.10;100648.00;;;;11168877;26;20267;-89
2024/04/09 13:52:49;;;;;;;2.50;0.73;;;;;14.10;100673.00;;;;11192102;26;20255;-88
2024/04/09 13:57:52;;;;;;;3.83;0.70;;;;;14.10;100664.00;;;;11182118;26;20642;-86
2024/04/09 14:02:54;;;;;;;2.47;0.60;;;;;13.70;100659.00;;;;11235755;26;20605;-86
2024/04/09 14:07:56;;;;;;;1.38;0.40;;;;;14.60;100674.00;;;;11187233;26;21155;-86
2024/04/09 14:12:58;;;;;;;0.90;0.60;;;;;14.90;100681.00;;;;11178429;26;20263;-85
2024/04/09 14:17:59;;;;;;;3.03;0.57;;;;;14.70;100681.00;;;;11170878;26;21110;-86
2024/04/09 14:23:01;;;;;;;1.80;0.75;;;;;14.00;100710.00;;;;11157235;26;20278;-85
2024/04/09 14:28:03;;;;;;;3.00;0.50;;;;;14.80;100706.00;;;;11107073;26;20252;-88
2024/04/09 14:33:05;;;;;;;2.25;0.65;;;;;14.90;100723.00;;;;11090777;26;20274;-84
2024/04/09 14:38:06;;;;;;;4.43;1.00;;;;;15.30;100726.00;;;;11090163;26;20344;-85
2024/04/09 14:43:08;;;;;;;4.18;0.90;;;;;15.30;100734.00;;;;11196444;25;20742;-88
2024/04/09 14:48:09;;;;;;;4.07;0.70;;;;;14.90;100732.00;;;;11180488;26;20315;-87
2024/04/09 14:53:12;;;;;;;4.85;0.90;;;;;14.50;100742.00;;;;11217513;26;20595;-85
2024/04/09 14:58:13;;;;;;;1.60;0.90;;;;;14.00;100760.00;;;;11147901;26;20255;-87
2024/04/09 15:03:15;;;;;;;2.87;0.80;;;;;13.50;100776.00;;;;11189939;26;20271;-80
2024/04/09 15:08:17;;;;;;;4.28;0.80;;;;;12.70;100808.00;;;;11181679;26;20252;-82
2024/04/09 15:13:19;;;;;;;4.43;1.23;;;;;11.40;100816.00;;;;11194307;26;20259;-80
2024/04/09 15:18:21;;;;;;;4.73;1.40;;;;;11.70;100809.00;;;;11183787;26;20263;-80
2024/04/09 15:23:23;;;;;;;4.67;1.43;;;;;12.00;100803.00;;;;11117600;26;20255;-79
2024/04/09 15:28:26;;;;;;;6.17;1.70;;;;;13.10;100805.00;;;;11196761;26;20275;-78
2024/04/09 15:33:27;;;;;;;4.17;1.30;;;;;13.00;100818.00;;;;11186249;26;20256;-78
2024/04/09 15:38:29;;;;;;;4.73;1.13;;;;;12.40;100825.00;;;;11186405;26;20270;-78
2024/04/09 15:43:31;;;;;;;5.93;1.50;;;;;12.30;100831.00;;;;11184032;25;20332;-78
2024/04/09 15:48:32;;;;;;;7.43;1.40;;;;;12.50;100828.00;;;;11157847;26;20348;-77
2024/04/09 15:53:35;;;;;;;4.90;1.50;;;;;12.90;100834.00;;;;11177662;26;20260;-78
2024/04/09 15:58:36;;;;;;;6.10;1.70;;;;;12.70;100846.00;;;;11197739;26;20282;-78
2024/04/09 16:03:42;;;;;;;5.67;1.70;;;;;12.40;100857.00;;;;11127552;26;20335;-78
2024/04/09 16:08:44;;;;;;;8.40;2.00;;;;;12.40;100856.00;;;;11191829;26;20264;-78
2024/04/09 16:13:45;;;;;;;7.90;2.00;;;;;12.30;100869.00;;;;11204312;26;20256;-78
2024/04/09 16:18:47;;;;;;;7.37;1.70;;;;;12.30;100886.00;;;;11166747;26;20256;-79
2024/04/09 16:23:49;;;;;;;12.33;2.43;;;;;12.20;100899.00;;;;11174605;26;20303;-79
2024/04/09 16:28:50;;;;;;;7.47;1.90;;;;;12.00;100890.00;;;;11156586;26;20267;-79
2024/04/09 16:33:52;;;;;;;11.70;2.67;;;;;12.30;100917.00;;;;11179147;26;20268;-79
2024/04/09 16:38:54;;;;;;;10.17;2.30;;;;;12.50;100928.00;;;;11146747;26;20742;-79
2024/04/09 16:43:55;;;;;;;10.10;2.17;;;;;12.50;100927.00;;;;11189983;26;20260;-79
2024/04/09 16:48:57;;;;;;;16.13;2.57;;;;;12.70;100934.00;;;;11203109;26;20290;-79
2024/04/09 16:53:58;;;;;;;11.37;2.43;;;;;12.60;100958.00;;;;11197079;26;20303;-79
2024/04/09 16:59:00;;;;;;;10.37;2.47;;;;;12.70;100968.00;;;;11186994;26;22333;-78
2024/04/09 17:04:02;;;;;;;10.93;2.23;;;;;12.70;100983.00;;;;11184222;26;20369;-79
2024/04/09 17:09:04;;;;;;;10.17;2.27;;;;;12.50;100983.00;;;;11144964;26;20344;-78
2024/04/09 17:14:08;;;;;;;11.70;2.53;;;;;12.20;100996.00;;;;11210697;26;20359;-79
2024/04/09 17:19:10;;;;;;;10.17;2.00;;;;;11.90;101002.00;;;;11139186;26;20287;-79
2024/04/09 17:24:12;;;;;;;16.27;3.17;;;;;11.90;101017.00;;;;11173708;26;20259;-78
2024/04/09 17:29:14;;;;;;;12.50;2.60;;;;;11.90;101030.00;;;;11186545;26;20369;-78
2024/04/09 17:34:17;;;;;;;7.53;2.50;;;;;11.80;101032.00;;;;11159642;26;20260;-78
2024/04/09 17:39:18;;;;;;;14.33;3.23;;;;;11.70;101036.00;;;;11165554;26;20275;-79
2024/04/09 17:44:20;;;;;;;11.37;2.43;;;;;11.60;101046.00;;;;11104543;26;20268;-78
2024/04/09 17:49:21;;;;;;;13.63;2.50;;;;;11.70;101041.00;;;;11101863;26;20350;-79
2024/04/09 17:54:23;;;;;;;10.37;2.57;;;;;11.50;101064.00;;;;11132604;26;20713;-78
2024/04/09 17:59:25;;;;;;;10.83;3.40;;;;;11.40;101066.00;;;;11182213;26;20259;-79
2024/04/09 18:04:26;;;;;;;11.17;2.80;;;;;11.30;101078.00;;;;11171098;26;20259;-78
2024/04/09 18:09:28;;;;;;;12.93;2.63;;;;;11.30;101085.00;;;;11181725;26;20381;-78
2024/04/09 18:14:29;;;;;;;12.00;3.27;;;;;11.20;101092.00;;;;11183536;26;20263;-79
2024/04/09 18:19:31;;;;;;;16.23;3.00;;;;;11.20;101102.00;;;;11159130;26;20275;-79
2024/04/09 18:24:32;;;;;;;15.83;3.47;;;;;11.10;101125.00;;;;11156876;26;20304;-78
2024/04/09 18:29:34;;;;;;;11.90;2.90;;;;;11.10;101131.00;;;;11164267;26;20356;-79
2024/04/09 18:34:36;;;;;;;14.60;2.90;;;;;11.00;101135.00;;;;11122404;26;20593;-78
2024/04/09 18:39:38;;;;;;;16.93;3.43;;;;;11.00;101153.00;;;;11125482;26;20263;-77
2024/04/09 18:44:39;;;;;;;10.43;2.50;;;;;11.00;101171.00;;;;11191633;26;20947;-77
2024/04/09 18:49:41;;;;;;;10.93;2.83;;;;;11.00;101167.00;;;;11074815;26;20722;-78
2024/04/09 18:54:43;;;;;;;14.30;2.57;;;;;11.00;101180.00;;;;11075599;26;21078;-77
2024/04/09 18:59:44;;;;;;;12.23;2.67;;;;;10.90;101193.00;;;;11054762;26;20275;-76
2024/04/09 19:04:45;;;;;;;10.33;2.80;;;;;10.90;101199.00;;;;11129889;26;20302;-78
2024/04/09 19:09:47;;;;;;;8.97;2.87;;;;;10.80;101204.00;;;;11195560;26;20260;-77
2024/04/09 19:14:49;;;;;;;12.83;2.70;;;;;10.70;101221.00;;;;11189379;26;20313;-78
2024/04/09 19:19:52;;;;;;;16.03;3.47;;;;;10.50;101226.00;;;;11213273;25;20260;-80
2024/04/09 19:24:53;;;;;;;8.40;2.37;;;;;10.50;101235.00;;;;11167229;26;20256;-78
2024/04/09 19:29:55;;;;;;;14.50;2.70;;;;;10.40;101238.00;;;;11167787;25;20891;-76
2024/04/09 19:34:57;;;;;;;13.07;3.20;;;;;10.40;101247.00;;;;11202526;25;20260;-77
2024/04/09 19:39:59;;;;;;;13.10;2.90;;;;;10.40;101264.00;;;;11160863;26;20281;-78
2024/04/09 19:45:02;;;;;;;12.13;2.87;;;;;10.40;101264.00;;;;11187049;26;20327;-86
2024/04/09 19:50:05;;;;;;;14.87;3.40;;;;;10.40;101274.00;;;;11238753;26;20257;-87
2024/04/09 19:55:08;;;;;;;12.70;2.93;;;;;10.50;101293.00;;;;11163869;26;20263;-86
2024/04/09 20:00:12;;;;;;;11.57;2.63;;;;;10.50;101302.00;;;;11183595;26;20294;-86
2024/04/09 20:05:14;;;;;;;15.77;2.97;;;;;10.40;101309.00;;;;11189521;25;20572;-87
2024/04/09 20:10:16;;;;;;;15.43;3.03;;;;;10.30;101308.00;;;;11201732;26;20267;-88
2024/04/09 20:15:18;;;;;;;10.47;2.57;;;;;10.20;101321.00;;;;11178153;26;20276;-87
2024/04/09 20:20:19;;;;;;;16.37;3.00;;;;;10.10;101320.00;;;;11209255;26;20251;-86
2024/04/09 20:25:21;;;;;;;14.70;2.53;;;;;10.00;101329.00;;;;11216437;26;20260;-88
2024/04/09 20:30:22;;;;;;;17.20;3.27;;;;;10.00;101336.00;;;;11085029;26;20302;-86
2024/04/09 20:35:24;;;;;;;15.47;3.70;;;;;9.80;101341.00;;;;11041244;26;20724;-87
2024/04/09 20:40:41;;;;;;;15.17;2.80;;;;;9.70;101360.00;;;;11129440;26;20294;-88
2024/04/09 20:45:42;;;;;;;11.33;3.10;;;;;9.70;101360.00;;;;11139797;26;20264;-87
2024/04/09 20:50:47;;;;;;;14.73;2.97;;;;;9.70;101372.00;;;;11160622;26;20763;-80
2024/04/09 20:55:59;;;;;;;16.07;2.87;;;;;9.70;101382.00;;;;11184355;26;20359;-81
2024/04/09 21:01:03;;;;;;;11.93;2.73;;;;;9.60;101391.00;;;;11185264;26;20255;-77
2024/04/09 21:06:04;;;;;;;21.90;3.07;;;;;9.50;101398.00;;;;11049573;26;20720;-78
2024/04/09 21:11:06;;;;;;;17.37;2.83;;;;;9.40;101400.00;;;;11168072;26;20300;-77
2024/04/09 21:16:09;;;;;;;14.10;2.93;;;;;9.30;101406.00;;;;11170418;26;20259;-78
2024/04/09 21:21:12;;;;;;;13.97;3.30;;;;;9.20;101417.00;;;;11145100;26;20256;-77
2024/04/09 21:26:13;;;;;;;12.13;2.63;;;;;9.10;101412.00;;;;11121539;26;21242;-77
2024/04/09 21:31:15;;;;;;;12.60;2.90;;;;;9.00;101433.00;;;;11149087;26;20260;-78
2024/04/09 21:36:17;;;;;;;15.23;3.07;;;;;8.90;101431.00;;;;11226808;25;20975;-77
2024/04/09 21:41:18;;;;;;;13.83;3.10;;;;;8.90;101435.00;;;;11196785;26;20281;-79
2024/04/09 21:46:24;;;;;;;16.87;3.50;;;;;8.80;101448.00;;;;11142390;26;20375;-77
2024/04/09 21:51:27;;;;;;;14.30;3.13;;;;;8.70;101462.00;;;;11163362;26;20267;-78
2024/04/09 21:56:28;;;;;;;18.90;3.67;;;;;8.70;101471.00;;;;11131619;26;20260;-78
2024/04/09 22:01:30;;;;;;;12.50;2.90;;;;;8.60;101489.00;;;;11188897;26;20348;-78
2024/04/09 22:06:31;;;;;;;18.13;3.20;;;;;8.60;101484.00;;;;11150655;26;20740;-77
2024/04/09 22:11:33;;;;;;;24.57;4.13;;;;;8.50;101505.00;;;;11189671;26;20895;-78
2024/04/09 22:16:35;;;;;;;15.90;3.10;;;;;8.50;101510.00;;;;11160088;26;20315;-78
2024/04/09 22:21:36;;;;;;;16.93;3.23;;;;;8.50;101517.00;;;;11192976;26;20271;-78
2024/04/09 22:26:37;;;;;;;19.17;3.40;;;;;8.40;101521.00;;;;11182438;26;20260;-78
2024/04/09 22:31:39;;;;;;;15.37;2.97;;;;;8.40;101524.00;;;;11134978;26;20263;-77
2024/04/09 22:36:40;;;;;;;18.13;3.13;;;;;8.30;101525.00;;;;11155599;26;20252;-78
2024/04/09 22:41:42;;;;;;;20.70;3.60;;;;;8.30;101529.00;;;;11207762;26;20264;-77
2024/04/09 22:46:43;;;;;;;19.17;3.70;;;;;8.40;101551.00;;;;11209008;26;20255;-79
2024/04/09 22:51:45;;;;;;;16.03;2.97;;;;;8.30;101551.00;;;;11148142;26;20764;-76
2024/04/09 22:56:47;;;;;;;20.87;3.93;;;;;8.40;101565.00;;;;11181180;26;21007;-76
2024/04/09 23:01:48;;;;;;;14.47;3.20;;;;;8.40;101572.00;;;;11144035;26;20353;-77
2024/04/09 23:06:50;;;;;;;18.80;4.00;;;;;8.40;101572.00;;;;11155377;26;20314;-77
2024/04/09 23:11:52;;;;;;;18.50;3.33;;;;;8.40;101574.00;;;;11152470;26;20264;-77
2024/04/09 23:16:53;;;;;;;17.73;3.27;;;;;8.40;101578.00;;;;11173700;26;21153;-76
2024/04/09 23:21:55;;;;;;;15.70;2.97;;;;;8.40;101590.00;;;;11203980;26;21061;-77
2024/04/09 23:26:56;;;;;;;15.93;2.90;;;;;8.40;101586.00;;;;11176352;26;20263;-78
2024/04/09 23:31:58;;;;;;;19.97;4.17;;;;;8.40;101603.00;;;;11137611;26;20884;-80
2024/04/09 23:36:59;;;;;;;11.43;3.27;;;;;8.40;101619.00;;;;11173952;26;20324;-80
2024/04/09 23:42:01;;;;;;;13.63;2.37;;;;;8.30;101615.00;;;;11136159;26;20286;-81
2024/04/09 23:47:06;;;;;;;12.57;3.13;;;;;8.20;101621.00;;;;11157698;26;20256;-83
2024/04/09 23:52:08;;;;;;;13.57;3.53;;;;;8.20;101621.00;;;;11156965;26;20636;-80
2024/04/09 23:57:10;;;;;;;20.70;3.67;;;;;8.10;101639.00;;;;11151369;26;20247;-81
